Time;durP1;ratioP1;P1;durP2;ratioP2;P2;SDS_P1;SDS_P2;PMS_P1;PMS_P2;Temp;Humidity;BMP_temperature;BMP_pressure;BME280_temperature;BME280_humidity;BME280_pressure;Samples;Min_cycle;Max_cycle;Signal;HPM_P1;HPM_P2
2022/10/30 00:00:00;;;;;;;;;;;;;;;;;;5132758;27;2358;-40
2022/10/30 00:02:37;;;;;;;;;;;;;;;;;;5132258;27;1994;-40
2022/10/30 00:05:04;;;;;;;;;;;;;;;;;;5132145;27;1812;-40
2022/10/30 00:07:32;;;;;;;;;;;;;;;;;;5132679;27;1588;-41
2022/10/30 00:09:59;;;;;;;;;;;;;;;;;;5130816;27;1736;-40
2022/10/30 00:12:26;;;;;;;;;;;;;;;;;;5111710;28;1549;-44
2022/10/30 00:14:53;;;;;;;;;;;;;;;;;;5123865;27;1901;-46
2022/10/30 00:17:20;;;;;;;;;;;;;;;;;;5111903;28;1941;-45
2022/10/30 00:19:47;;;;;;;;;;;;;;;;;;5111341;28;1268;-42
2022/10/30 00:22:14;;;;;;;;;;;;;;;;;;5112310;28;1915;-44
2022/10/30 00:24:41;;;;;;;;;;;;;;;;;;5111585;28;2107;-39
2022/10/30 00:27:08;;;;;;;;;;;;;;;;;;5111420;28;1753;-42
2022/10/30 00:29:35;;;;;;;;;;;;;;;;;;5111564;28;1778;-53
2022/10/30 00:32:03;;;;;;;;;;;;;;;;;;5111719;28;1455;-44
2022/10/30 00:34:30;;;;;;;;;;;;;;;;;;5111596;28;1793;-50
2022/10/30 00:36:57;;;;;;;;;;;;;;;;;;5111591;28;1495;-47
2022/10/30 00:39:24;;;;;;;;;;;;;;;;;;5111581;28;1556;-47
2022/10/30 00:41:51;;;;;;;;;;;;;;;;;;5111445;28;1976;-48
2022/10/30 00:44:32;;;;;;;;;;;;;;;;;;5111495;28;2141;-40
2022/10/30 00:47:03;;;;;;;;;;;;;;;;;;5110042;28;1983;-41
2022/10/30 00:49:32;;;;;;;;;;;;;;;;;;5111544;28;2201;-47
2022/10/30 00:52:00;;;;;;;;;;;;;;;;;;5126153;28;2359;-47
2022/10/30 00:54:28;;;;;;;;;;;;;;;;;;5130517;28;2229;-44
2022/10/30 00:56:55;;;;;;;;;;;;;;;;;;5131787;27;1813;-44
2022/10/30 00:59:23;;;;;;;;;;;;;;;;;;5130667;28;1868;-52
2022/10/30 01:01:51;;;;;;;;;;;;;;;;;;5131815;27;1837;-45
2022/10/30 01:04:19;;;;;;;;;;;;;;;;;;5131939;27;1846;-40
2022/10/30 01:06:50;;;;;;;;;;;;;;;;;;5131259;27;1877;-43
2022/10/30 01:09:18;;;;;;;;;;;;;;;;;;5135631;27;2191;-42
2022/10/30 01:11:46;;;;;;;;;;;;;;;;;;5135661;27;1810;-41
2022/10/30 01:14:15;;;;;;;;;;;;;;;;;;5135851;27;1762;-42
2022/10/30 01:17:00;;;;;;;;;;;;;;;;;;5135867;27;1957;-42
2022/10/30 01:19:38;;;;;;;;;;;;;;;;;;5134288;27;2271;-47
2022/10/30 01:22:17;;;;;;;;;;;;;;;;;;5134300;27;2079;-44
2022/10/30 01:24:48;;;;;;;;;;;;;;;;;;5135640;27;2130;-47
2022/10/30 01:27:15;;;;;;;;;;;;;;;;;;5134026;27;1482;-50
2022/10/30 01:29:55;;;;;;;;;;;;;;;;;;5135314;27;1758;-41
2022/10/30 01:32:41;;;;;;;;;;;;;;;;;;5135478;27;1962;-44
2022/10/30 01:35:27;;;;;;;;;;;;;;;;;;5135175;27;1838;-39
2022/10/30 01:38:06;;;;;;;;;;;;;;;;;;5133710;27;1474;-44
2022/10/30 01:40:33;;;;;;;;;;;;;;;;;;5133586;27;1847;-41
2022/10/30 01:43:03;;;;;;;;;;;;;;;;;;5134864;27;2277;-42
2022/10/30 01:45:35;;;;;;;;;;;;;;;;;;5135313;27;1850;-46
2022/10/30 01:48:16;;;;;;;;;;;;;;;;;;5133801;27;2134;-41
2022/10/30 01:50:48;;;;;;;;;;;;;;;;;;5130152;27;1843;-45
2022/10/30 01:53:22;;;;;;;;;;;;;;;;;;5130165;27;1556;-42
2022/10/30 01:55:54;;;;;;;;;;;;;;;;;;5112876;28;2140;-38
2022/10/30 01:58:27;;;;;;;;;;;;;;;;;;5113124;28;1840;-48
2022/10/30 02:01:01;;;;;;;;;;;;;;;;;;5112944;28;1747;-39
2022/10/30 02:03:29;;;;;;;;;;;;;;;;;;5112750;28;1913;-39
2022/10/30 02:05:56;;;;;;;;;;;;;;;;;;5112563;28;1792;-39
2022/10/30 02:08:23;;;;;;;;;;;;;;;;;;5112304;28;2197;-47
2022/10/30 02:10:51;;;;;;;;;;;;;;;;;;5112462;28;2079;-43
2022/10/30 02:13:31;;;;;;;;;;;;;;;;;;5118742;27;1827;-42
2022/10/30 02:15:59;;;;;;;;;;;;;;;;;;5112688;28;1929;-45
2022/10/30 02:18:26;;;;;;;;;;;;;;;;;;5111403;28;2105;-43
2022/10/30 02:20:53;;;;;;;;;;;;;;;;;;5113958;28;1962;-40
2022/10/30 02:23:21;;;;;;;;;;;;;;;;;;5112302;28;2000;-42
2022/10/30 02:25:49;;;;;;;;;;;;;;;;;;5112509;28;1853;-41
2022/10/30 02:28:16;;;;;;;;;;;;;;;;;;5112187;28;1807;-40
2022/10/30 02:30:43;;;;;;;;;;;;;;;;;;5113755;28;1830;-40
2022/10/30 02:33:10;;;;;;;;;;;;;;;;;;5113808;28;2029;-46
2022/10/30 02:35:37;;;;;;;;;;;;;;;;;;5112718;28;1811;-44
2022/10/30 02:38:06;;;;;;;;;;;;;;;;;;5095838;28;2141;-46
2022/10/30 02:40:33;;;;;;;;;;;;;;;;;;5113324;28;1907;-41
2022/10/30 02:43:00;;;;;;;;;;;;;;;;;;5113531;28;2273;-44
2022/10/30 02:45:28;;;;;;;;;;;;;;;;;;5112240;28;1864;-40
2022/10/30 02:47:57;;;;;;;;;;;;;;;;;;5111776;28;1732;-39
2022/10/30 02:50:25;;;;;;;;;;;;;;;;;;5111816;28;1973;-42
2022/10/30 02:52:52;;;;;;;;;;;;;;;;;;5113187;28;1932;-43
2022/10/30 02:55:20;;;;;;;;;;;;;;;;;;5113250;28;1995;-44
2022/10/30 02:57:48;;;;;;;;;;;;;;;;;;5111880;28;1827;-39
2022/10/30 03:00:16;;;;;;;;;;;;;;;;;;5111660;28;1877;-45
2022/10/30 03:02:43;;;;;;;;;;;;;;;;;;5111897;28;1910;-44
2022/10/30 03:05:10;;;;;;;;;;;;;;;;;;5111695;28;2043;-39
2022/10/30 03:07:37;;;;;;;;;;;;;;;;;;5113107;28;1339;-40
2022/10/30 03:10:04;;;;;;;;;;;;;;;;;;5113099;28;1916;-40
2022/10/30 03:12:31;;;;;;;;;;;;;;;;;;5111481;28;1602;-40
2022/10/30 03:14:58;;;;;;;;;;;;;;;;;;5112815;28;1621;-42
2022/10/30 03:17:25;;;;;;;;;;;;;;;;;;5111293;28;1804;-39
2022/10/30 03:19:53;;;;;;;;;;;;;;;;;;5112625;28;1891;-42
2022/10/30 03:22:20;;;;;;;;;;;;;;;;;;5112503;28;1753;-41
2022/10/30 03:24:49;;;;;;;;;;;;;;;;;;5112483;28;2160;-45
2022/10/30 03:27:16;;;;;;;;;;;;;;;;;;5112538;28;1818;-44
2022/10/30 03:29:45;;;;;;;;;;;;;;;;;;5111266;28;1889;-47
2022/10/30 03:32:12;;;;;;;;;;;;;;;;;;5112819;28;1801;-39
2022/10/30 03:34:45;;;;;;;;;;;;;;;;;;5112478;28;1761;-51
2022/10/30 03:37:13;;;;;;;;;;;;;;;;;;5111274;28;1935;-42
2022/10/30 03:39:39;;;;;;;;;;;;;;;;;;5112165;28;1597;-45
2022/10/30 03:42:06;;;;;;;;;;;;;;;;;;5112067;28;2053;-40
2022/10/30 03:44:33;;;;;;;;;;;;;;;;;;5112344;28;1977;-42
2022/10/30 03:47:01;;;;;;;;;;;;;;;;;;5111029;28;1557;-50
2022/10/30 03:49:33;;;;;;;;;;;;;;;;;;5110516;28;2181;-40
2022/10/30 03:52:07;;;;;;;;;;;;;;;;;;5110584;28;2268;-42
2022/10/30 03:54:34;;;;;;;;;;;;;;;;;;5111754;28;1711;-44
2022/10/30 03:57:01;;;;;;;;;;;;;;;;;;5110599;28;1918;-38
2022/10/30 03:59:36;;;;;;;;;;;;;;;;;;5110567;28;2037;-43
2022/10/30 04:02:25;;;;;;;;;;;;;;;;;;5110673;28;2213;-43
2022/10/30 04:04:52;;;;;;;;;;;;;;;;;;5110133;28;2436;-40
2022/10/30 04:07:19;;;;;;;;;;;;;;;;;;5110460;28;2143;-40
2022/10/30 04:09:46;;;;;;;;;;;;;;;;;;5123843;27;1606;-40
2022/10/30 04:12:13;;;;;;;;;;;;;;;;;;5132351;27;1958;-45
2022/10/30 04:14:40;;;;;;;;;;;;;;;;;;5131064;27;2085;-42
2022/10/30 04:17:08;;;;;;;;;;;;;;;;;;5132170;27;1835;-43
2022/10/30 04:19:36;;;;;;;;;;;;;;;;;;5127717;27;1768;-39
2022/10/30 04:22:03;;;;;;;;;;;;;;;;;;5110558;28;1911;-46
2022/10/30 04:24:31;;;;;;;;;;;;;;;;;;5110112;28;1972;-42
2022/10/30 04:26:59;;;;;;;;;;;;;;;;;;5122458;27;2057;-40
2022/10/30 04:29:26;;;;;;;;;;;;;;;;;;5110301;28;2048;-41
2022/10/30 04:31:53;;;;;;;;;;;;;;;;;;5127382;28;1774;-42
2022/10/30 04:34:20;;;;;;;;;;;;;;;;;;5124948;28;1957;-41
2022/10/30 04:36:47;;;;;;;;;;;;;;;;;;5110460;28;1975;-40
2022/10/30 04:39:14;;;;;;;;;;;;;;;;;;5110248;28;1922;-39
2022/10/30 04:41:42;;;;;;;;;;;;;;;;;;5110562;28;1682;-39
2022/10/30 04:44:16;;;;;;;;;;;;;;;;;;5114469;28;1972;-45
2022/10/30 04:46:43;;;;;;;;;;;;;;;;;;5114210;28;1960;-48
2022/10/30 04:49:10;;;;;;;;;;;;;;;;;;5114457;28;1778;-40
2022/10/30 04:51:38;;;;;;;;;;;;;;;;;;5129151;27;1741;-40
2022/10/30 04:54:06;;;;;;;;;;;;;;;;;;5134660;27;2065;-40
2022/10/30 04:56:36;;;;;;;;;;;;;;;;;;5134601;27;1677;-42
2022/10/30 04:59:03;;;;;;;;;;;;;;;;;;5134435;27;2013;-46
2022/10/30 05:01:30;;;;;;;;;;;;;;;;;;5134777;27;2025;-41
2022/10/30 05:03:59;;;;;;;;;;;;;;;;;;5134702;27;1919;-43
2022/10/30 05:06:31;;;;;;;;;;;;;;;;;;5134154;27;1758;-39
2022/10/30 05:08:58;;;;;;;;;;;;;;;;;;5135649;27;1696;-41
2022/10/30 05:11:31;;;;;;;;;;;;;;;;;;5134358;27;1837;-45
2022/10/30 05:13:58;;;;;;;;;;;;;;;;;;5135789;27;2139;-45
2022/10/30 05:16:25;;;;;;;;;;;;;;;;;;5135989;27;1519;-40
2022/10/30 05:18:53;;;;;;;;;;;;;;;;;;5134171;27;1948;-40
2022/10/30 05:21:20;;;;;;;;;;;;;;;;;;5131106;27;2103;-41
2022/10/30 05:23:47;;;;;;;;;;;;;;;;;;5113685;28;2033;-40
2022/10/30 05:26:15;;;;;;;;;;;;;;;;;;5118336;27;1628;-40
2022/10/30 05:28:42;;;;;;;;;;;;;;;;;;5134092;27;2000;-39
2022/10/30 05:31:09;;;;;;;;;;;;;;;;;;5122834;27;1982;-40
2022/10/30 05:33:54;;;;;;;;;;;;;;;;;;5116429;27;2325;-40
2022/10/30 05:36:23;;;;;;;;;;;;;;;;;;5113407;28;2466;-39
2022/10/30 05:38:51;;;;;;;;;;;;;;;;;;5113703;28;1912;-42
2022/10/30 05:41:30;;;;;;;;;;;;;;;;;;5125038;27;1878;-40
2022/10/30 05:43:57;;;;;;;;;;;;;;;;;;5113145;28;2205;-40
2022/10/30 05:46:25;;;;;;;;;;;;;;;;;;5114679;28;1696;-39
2022/10/30 05:48:53;;;;;;;;;;;;;;;;;;5113324;28;1951;-39
2022/10/30 05:51:22;;;;;;;;;;;;;;;;;;5113395;28;1850;-43
2022/10/30 05:53:53;;;;;;;;;;;;;;;;;;5111904;28;2397;-43
2022/10/30 05:56:25;;;;;;;;;;;;;;;;;;5113100;28;1436;-45
2022/10/30 05:58:55;;;;;;;;;;;;;;;;;;5113160;28;2036;-39
2022/10/30 06:01:22;;;;;;;;;;;;;;;;;;5114573;28;1582;-41
2022/10/30 06:03:53;;;;;;;;;;;;;;;;;;5112847;28;2013;-44
2022/10/30 06:06:20;;;;;;;;;;;;;;;;;;5114135;28;2072;-43
2022/10/30 06:08:48;;;;;;;;;;;;;;;;;;5112644;28;1782;-42
2022/10/30 06:11:30;;;;;;;;;;;;;;;;;;5124767;27;2074;-39
2022/10/30 06:13:59;;;;;;;;;;;;;;;;;;5132915;27;1691;-39
2022/10/30 06:16:44;;;;;;;;;;;;;;;;;;5134460;27;1743;-39
2022/10/30 06:19:41;;;;;;;;;;;;;;;;;;5116563;27;1619;-40
2022/10/30 06:22:26;;;;;;;;;;;;;;;;;;5133097;27;1650;-41
2022/10/30 06:24:59;;;;;;;;;;;;;;;;;;5132869;27;1978;-41
2022/10/30 06:27:47;;;;;;;;;;;;;;;;;;5126360;27;1489;-41
2022/10/30 06:30:14;;;;;;;;;;;;;;;;;;5118039;27;1691;-38
2022/10/30 06:32:41;;;;;;;;;;;;;;;;;;5113769;28;2119;-40
2022/10/30 06:35:08;;;;;;;;;;;;;;;;;;5112371;28;1680;-41
2022/10/30 06:37:38;;;;;;;;;;;;;;;;;;5112359;28;2242;-41
2022/10/30 06:40:09;;;;;;;;;;;;;;;;;;5112077;28;1612;-40
2022/10/30 06:43:08;;;;;;;;;;;;;;;;;;5111917;28;1497;-39
2022/10/30 06:45:40;;;;;;;;;;;;;;;;;;5111982;28;1923;-41
2022/10/30 06:48:08;;;;;;;;;;;;;;;;;;5112011;28;2222;-43
2022/10/30 06:50:40;;;;;;;;;;;;;;;;;;5111747;28;1811;-43
2022/10/30 06:53:07;;;;;;;;;;;;;;;;;;5111637;28;1944;-41
2022/10/30 06:55:35;;;;;;;;;;;;;;;;;;5111977;28;1711;-41
2022/10/30 06:58:25;;;;;;;;;;;;;;;;;;5102256;28;1667;-41
2022/10/30 07:01:05;;;;;;;;;;;;;;;;;;5112966;28;1991;-46
2022/10/30 07:04:01;;;;;;;;;;;;;;;;;;5094808;28;1997;-40
2022/10/30 07:06:28;;;;;;;;;;;;;;;;;;5111456;28;1793;-45
2022/10/30 07:08:56;;;;;;;;;;;;;;;;;;5113294;28;1443;-47
2022/10/30 07:11:23;;;;;;;;;;;;;;;;;;5111369;28;2119;-41
2022/10/30 07:14:12;;;;;;;;;;;;;;;;;;5111414;28;2164;-46
2022/10/30 07:16:48;;;;;;;;;;;;;;;;;;5112527;28;2088;-47
2022/10/30 07:19:15;;;;;;;;;;;;;;;;;;5111437;28;1875;-40
2022/10/30 07:21:43;;;;;;;;;;;;;;;;;;5111368;28;1936;-44
2022/10/30 07:24:10;;;;;;;;;;;;;;;;;;5112589;28;2176;-49
2022/10/30 07:26:49;;;;;;;;;;;;;;;;;;5111050;28;1696;-40
2022/10/30 07:29:35;;;;;;;;;;;;;;;;;;5111285;28;1829;-39
2022/10/30 07:32:23;;;;;;;;;;;;;;;;;;5112609;28;1901;-40
2022/10/30 07:35:12;;;;;;;;;;;;;;;;;;5112012;28;1955;-39
2022/10/30 07:38:05;;;;;;;;;;;;;;;;;;5112707;28;1775;-44
2022/10/30 07:40:51;;;;;;;;;;;;;;;;;;5110955;28;1477;-42
2022/10/30 07:43:37;;;;;;;;;;;;;;;;;;5110732;28;2196;-43
2022/10/30 07:46:24;;;;;;;;;;;;;;;;;;5112255;28;1990;-40
2022/10/30 07:49:28;;;;;;;;;;;;;;;;;;5069448;28;1978;-40
2022/10/30 07:52:03;;;;;;;;;;;;;;;;;;5118868;27;1774;-40
2022/10/30 07:54:31;;;;;;;;;;;;;;;;;;5131611;27;1782;-40
2022/10/30 07:57:08;;;;;;;;;;;;;;;;;;5131410;27;2230;-40
2022/10/30 07:59:58;;;;;;;;;;;;;;;;;;5132718;27;1965;-43
2022/10/30 08:02:38;;;;;;;;;;;;;;;;;;5132261;27;1581;-44
2022/10/30 08:05:38;;;;;;;;;;;;;;;;;;5121027;27;1973;-46
2022/10/30 08:08:13;;;;;;;;;;;;;;;;;;5130926;27;2061;-48
2022/10/30 08:10:41;;;;;;;;;;;;;;;;;;5130730;27;1809;-44
2022/10/30 08:13:08;;;;;;;;;;;;;;;;;;5132459;27;1869;-43
2022/10/30 08:15:36;;;;;;;;;;;;;;;;;;5131074;27;1767;-40
2022/10/30 08:18:04;;;;;;;;;;;;;;;;;;5131757;27;1814;-44
2022/10/30 08:20:34;;;;;;;;;;;;;;;;;;5131143;27;2064;-41
2022/10/30 08:23:01;;;;;;;;;;;;;;;;;;5131073;27;2215;-43
2022/10/30 08:25:29;;;;;;;;;;;;;;;;;;5130895;27;1983;-43
2022/10/30 08:28:01;;;;;;;;;;;;;;;;;;5132170;27;1634;-41
2022/10/30 08:30:34;;;;;;;;;;;;;;;;;;5132124;27;1649;-42
2022/10/30 08:33:09;;;;;;;;;;;;;;;;;;5130785;28;1856;-47
2022/10/30 08:35:58;;;;;;;;;;;;;;;;;;5131754;28;1877;-47
2022/10/30 08:38:26;;;;;;;;;;;;;;;;;;5130821;28;2181;-48
2022/10/30 08:41:11;;;;;;;;;;;;;;;;;;5132233;28;1671;-41
2022/10/30 08:43:47;;;;;;;;;;;;;;;;;;5130450;28;1921;-40
2022/10/30 08:46:16;;;;;;;;;;;;;;;;;;5131773;27;1753;-40
2022/10/30 08:48:43;;;;;;;;;;;;;;;;;;5131801;27;1865;-45
2022/10/30 08:51:10;;;;;;;;;;;;;;;;;;5127286;28;2191;-41
2022/10/30 08:53:42;;;;;;;;;;;;;;;;;;5110099;28;1941;-43
2022/10/30 08:56:13;;;;;;;;;;;;;;;;;;5110163;28;1650;-43
2022/10/30 08:59:05;;;;;;;;;;;;;;;;;;5110166;28;1763;-43
2022/10/30 09:01:35;;;;;;;;;;;;;;;;;;5110129;28;1866;-42
2022/10/30 09:04:15;;;;;;;;;;;;;;;;;;5111126;28;2019;-41
2022/10/30 09:07:00;;;;;;;;;;;;;;;;;;5110975;28;1770;-44
2022/10/30 09:09:33;;;;;;;;;;;;;;;;;;5111457;28;1914;-41
2022/10/30 09:12:02;;;;;;;;;;;;;;;;;;5109920;28;1683;-45
2022/10/30 09:14:35;;;;;;;;;;;;;;;;;;5111438;28;1774;-42
2022/10/30 09:17:03;;;;;;;;;;;;;;;;;;5111256;28;2188;-42
2022/10/30 09:19:31;;;;;;;;;;;;;;;;;;5093156;28;1990;-44
2022/10/30 09:22:00;;;;;;;;;;;;;;;;;;5109629;28;1933;-45
2022/10/30 09:24:28;;;;;;;;;;;;;;;;;;5109781;28;1910;-47
2022/10/30 09:27:16;;;;;;;;;;;;;;;;;;5099931;28;1769;-41
2022/10/30 09:29:47;;;;;;;;;;;;;;;;;;5113958;28;1728;-42
2022/10/30 09:32:21;;;;;;;;;;;;;;;;;;5113487;28;1951;-45
2022/10/30 09:35:00;;;;;;;;;;;;;;;;;;5113284;28;2054;-41
2022/10/30 09:37:39;;;;;;;;;;;;;;;;;;5113611;28;1977;-39
2022/10/30 09:40:18;;;;;;;;;;;;;;;;;;5113331;28;1674;-47
2022/10/30 09:42:47;;;;;;;;;;;;;;;;;;5113208;28;2357;-40
2022/10/30 09:45:21;;;;;;;;;;;;;;;;;;5112963;28;2686;-40
2022/10/30 09:48:00;;;;;;;;;;;;;;;;;;5113122;28;1710;-42
2022/10/30 09:50:40;;;;;;;;;;;;;;;;;;5114473;28;2222;-49
2022/10/30 09:53:35;;;;;;;;;;;;;;;;;;5112900;28;1825;-40
2022/10/30 09:56:07;;;;;;;;;;;;;;;;;;5087286;28;1995;-42
2022/10/30 09:58:47;;;;;;;;;;;;;;;;;;5113329;28;2015;-43
2022/10/30 10:01:21;;;;;;;;;;;;;;;;;;5112844;28;2051;-43
2022/10/30 10:03:57;;;;;;;;;;;;;;;;;;5113083;28;2002;-44
2022/10/30 10:06:52;;;;;;;;;;;;;;;;;;5084966;28;1336;-44
2022/10/30 10:09:38;;;;;;;;;;;;;;;;;;5114154;28;2051;-42
2022/10/30 10:12:37;;;;;;;;;;;;;;;;;;5112942;28;1548;-40
2022/10/30 10:15:09;;;;;;;;;;;;;;;;;;5113806;27;1332;-40
2022/10/30 10:17:39;;;;;;;;;;;;;;;;;;5114082;28;2101;-41
2022/10/30 10:20:13;;;;;;;;;;;;;;;;;;5113940;28;2038;-40
2022/10/30 10:22:50;;;;;;;;;;;;;;;;;;5114127;28;2016;-43
2022/10/30 10:25:19;;;;;;;;;;;;;;;;;;5112514;28;2152;-42
2022/10/30 10:27:52;;;;;;;;;;;;;;;;;;5113798;28;1865;-41
2022/10/30 10:30:20;;;;;;;;;;;;;;;;;;5113656;28;1928;-40
2022/10/30 10:32:50;;;;;;;;;;;;;;;;;;5113860;28;1784;-45
2022/10/30 10:35:17;;;;;;;;;;;;;;;;;;5113527;28;1919;-40
2022/10/30 10:37:50;;;;;;;;;;;;;;;;;;5113607;28;1578;-43
2022/10/30 10:40:36;;;;;;;;;;;;;;;;;;5112644;28;2346;-43
2022/10/30 10:43:22;;;;;;;;;;;;;;;;;;5113354;28;1682;-42
2022/10/30 10:45:49;;;;;;;;;;;;;;;;;;5113415;28;1979;-40
2022/10/30 10:48:36;;;;;;;;;;;;;;;;;;5113372;28;1833;-39
2022/10/30 10:51:05;;;;;;;;;;;;;;;;;;5081705;28;1920;-45
2022/10/30 10:53:39;;;;;;;;;;;;;;;;;;5111664;28;2135;-41
2022/10/30 10:56:06;;;;;;;;;;;;;;;;;;5113219;27;1917;-40
2022/10/30 10:58:46;;;;;;;;;;;;;;;;;;5111960;28;1873;-43
2022/10/30 11:01:16;;;;;;;;;;;;;;;;;;5113317;28;1186;-41
2022/10/30 11:03:56;;;;;;;;;;;;;;;;;;5113043;28;1882;-43
2022/10/30 11:06:26;;;;;;;;;;;;;;;;;;5112900;28;1971;-42
2022/10/30 11:09:00;;;;;;;;;;;;;;;;;;5113319;28;1859;-40
2022/10/30 11:11:27;;;;;;;;;;;;;;;;;;5113121;28;1691;-42
2022/10/30 11:13:54;;;;;;;;;;;;;;;;;;5112813;28;1853;-40
2022/10/30 11:16:24;;;;;;;;;;;;;;;;;;5112545;28;1864;-41
2022/10/30 11:18:55;;;;;;;;;;;;;;;;;;5112961;28;1684;-40
2022/10/30 11:21:23;;;;;;;;;;;;;;;;;;5112857;28;2286;-40
2022/10/30 11:23:52;;;;;;;;;;;;;;;;;;5112896;28;1836;-43
2022/10/30 11:26:20;;;;;;;;;;;;;;;;;;5112416;28;2034;-40
2022/10/30 11:29:12;;;;;;;;;;;;;;;;;;5112361;28;2118;-40
2022/10/30 11:31:43;;;;;;;;;;;;;;;;;;5112325;28;1802;-40
2022/10/30 11:34:19;;;;;;;;;;;;;;;;;;5112381;28;1573;-39
2022/10/30 11:36:47;;;;;;;;;;;;;;;;;;5112598;28;1992;-39
2022/10/30 11:39:18;;;;;;;;;;;;;;;;;;5112775;28;1554;-40
2022/10/30 11:41:54;;;;;;;;;;;;;;;;;;5112431;28;2038;-40
2022/10/30 11:44:28;;;;;;;;;;;;;;;;;;5112324;28;1969;-40
2022/10/30 11:46:55;;;;;;;;;;;;;;;;;;5112054;28;1906;-39
2022/10/30 11:49:29;;;;;;;;;;;;;;;;;;5111907;28;1802;-40
2022/10/30 11:51:56;;;;;;;;;;;;;;;;;;5110654;28;2195;-40
2022/10/30 11:54:24;;;;;;;;;;;;;;;;;;5112278;28;2166;-39
2022/10/30 11:56:53;;;;;;;;;;;;;;;;;;5111930;28;1774;-40
2022/10/30 11:59:21;;;;;;;;;;;;;;;;;;5112141;28;2203;-40
2022/10/30 12:02:07;;;;;;;;;;;;;;;;;;5112593;28;1931;-40
2022/10/30 12:04:35;;;;;;;;;;;;;;;;;;5111993;28;1880;-41
2022/10/30 12:07:15;;;;;;;;;;;;;;;;;;5111788;28;2416;-45
2022/10/30 12:09:43;;;;;;;;;;;;;;;;;;5111894;28;1647;-45
2022/10/30 12:12:22;;;;;;;;;;;;;;;;;;5111741;28;1786;-41
2022/10/30 12:14:50;;;;;;;;;;;;;;;;;;5111702;28;1958;-40
2022/10/30 12:17:18;;;;;;;;;;;;;;;;;;5112080;28;1681;-40
2022/10/30 12:19:50;;;;;;;;;;;;;;;;;;5111941;28;1997;-44
2022/10/30 12:22:30;;;;;;;;;;;;;;;;;;5111714;28;1310;-40
2022/10/30 12:25:05;;;;;;;;;;;;;;;;;;5111576;28;2014;-39
2022/10/30 12:27:35;;;;;;;;;;;;;;;;;;5111703;28;1654;-40
2022/10/30 12:30:18;;;;;;;;;;;;;;;;;;5111785;28;2045;-40
2022/10/30 12:32:55;;;;;;;;;;;;;;;;;;5111926;28;1643;-40
2022/10/30 12:35:38;;;;;;;;;;;;;;;;;;5111641;28;2083;-42
2022/10/30 12:38:08;;;;;;;;;;;;;;;;;;5111501;28;1440;-39
2022/10/30 12:40:41;;;;;;;;;;;;;;;;;;5111234;28;2163;-40
2022/10/30 12:43:16;;;;;;;;;;;;;;;;;;5111011;28;1943;-43
2022/10/30 12:45:44;;;;;;;;;;;;;;;;;;5111280;28;1894;-39
2022/10/30 12:48:14;;;;;;;;;;;;;;;;;;5111480;28;1424;-45
2022/10/30 12:50:42;;;;;;;;;;;;;;;;;;5111541;28;1873;-45
2022/10/30 12:53:26;;;;;;;;;;;;;;;;;;5111520;28;1618;-47
2022/10/30 12:56:14;;;;;;;;;;;;;;;;;;5111042;28;1925;-50
2022/10/30 12:58:59;;;;;;;;;;;;;;;;;;5111455;28;1658;-40
2022/10/30 13:01:36;;;;;;;;;;;;;;;;;;5111390;28;1951;-40
2022/10/30 13:04:08;;;;;;;;;;;;;;;;;;5114226;28;1734;-41
2022/10/30 13:06:45;;;;;;;;;;;;;;;;;;5114646;28;1902;-41
2022/10/30 13:09:23;;;;;;;;;;;;;;;;;;5114829;27;1937;-40
2022/10/30 13:11:53;;;;;;;;;;;;;;;;;;5115061;28;1703;-40
2022/10/30 13:14:22;;;;;;;;;;;;;;;;;;5115212;28;1767;-43
2022/10/30 13:16:49;;;;;;;;;;;;;;;;;;5115140;28;2079;-45
2022/10/30 13:19:16;;;;;;;;;;;;;;;;;;5114852;28;1983;-40
2022/10/30 13:21:46;;;;;;;;;;;;;;;;;;5113912;28;1991;-46
2022/10/30 13:24:13;;;;;;;;;;;;;;;;;;5114978;28;2355;-41
2022/10/30 13:26:54;;;;;;;;;;;;;;;;;;5115086;28;1968;-40
2022/10/30 13:29:26;;;;;;;;;;;;;;;;;;5114982;28;2128;-39
2022/10/30 13:32:11;;;;;;;;;;;;;;;;;;5115076;28;1824;-41
2022/10/30 13:34:44;;;;;;;;;;;;;;;;;;5114766;28;2160;-41
2022/10/30 13:37:30;;;;;;;;;;;;;;;;;;5114552;28;2011;-42
2022/10/30 13:39:57;;;;;;;;;;;;;;;;;;5114573;28;1758;-39
2022/10/30 13:42:31;;;;;;;;;;;;;;;;;;5114673;28;1817;-42
2022/10/30 13:45:19;;;;;;;;;;;;;;;;;;5114665;28;2181;-40
2022/10/30 13:47:55;;;;;;;;;;;;;;;;;;5107507;28;1506;-40
2022/10/30 13:50:26;;;;;;;;;;;;;;;;;;5116156;27;1832;-39
2022/10/30 13:52:56;;;;;;;;;;;;;;;;;;5114758;28;2141;-40
2022/10/30 13:55:26;;;;;;;;;;;;;;;;;;5114510;28;2000;-40
2022/10/30 13:58:02;;;;;;;;;;;;;;;;;;5114549;28;1893;-40
2022/10/30 14:00:50;;;;;;;;;;;;;;;;;;5114291;28;1251;-40
2022/10/30 14:03:22;;;;;;;;;;;;;;;;;;5114033;28;1782;-42
2022/10/30 14:05:52;;;;;;;;;;;;;;;;;;5113781;28;1913;-38
2022/10/30 14:08:38;;;;;;;;;;;;;;;;;;5114082;28;1994;-41
2022/10/30 14:11:10;;;;;;;;;;;;;;;;;;5114111;28;1672;-46
2022/10/30 14:13:50;;;;;;;;;;;;;;;;;;5113904;28;1369;-49
2022/10/30 14:16:34;;;;;;;;;;;;;;;;;;5111958;28;1908;-42
2022/10/30 14:19:07;;;;;;;;;;;;;;;;;;5112805;28;1944;-40
2022/10/30 14:21:34;;;;;;;;;;;;;;;;;;5113668;28;1891;-40
2022/10/30 14:24:10;;;;;;;;;;;;;;;;;;5113981;28;1962;-40
2022/10/30 14:26:39;;;;;;;;;;;;;;;;;;5113771;28;1977;-41
2022/10/30 14:29:29;;;;;;;;;;;;;;;;;;5113916;28;1841;-47
2022/10/30 14:31:56;;;;;;;;;;;;;;;;;;5113818;28;1770;-44
2022/10/30 14:34:43;;;;;;;;;;;;;;;;;;5114113;28;2040;-38
2022/10/30 14:37:11;;;;;;;;;;;;;;;;;;5113732;28;2017;-39
2022/10/30 14:39:42;;;;;;;;;;;;;;;;;;5113517;28;1852;-44
2022/10/30 14:42:28;;;;;;;;;;;;;;;;;;5113605;28;1526;-47
2022/10/30 14:45:14;;;;;;;;;;;;;;;;;;5113782;28;1879;-46
2022/10/30 14:47:50;;;;;;;;;;;;;;;;;;5113559;28;1958;-42
2022/10/30 14:50:17;;;;;;;;;;;;;;;;;;5113334;28;1343;-40
2022/10/30 14:52:47;;;;;;;;;;;;;;;;;;5113178;28;2159;-40
2022/10/30 14:55:24;;;;;;;;;;;;;;;;;;5113461;28;2030;-43
2022/10/30 14:57:53;;;;;;;;;;;;;;;;;;5112986;28;1774;-42
2022/10/30 15:00:23;;;;;;;;;;;;;;;;;;5113163;28;1756;-40
2022/10/30 15:03:22;;;;;;;;;;;;;;;;;;5113155;28;2103;-41
2022/10/30 15:05:54;;;;;;;;;;;;;;;;;;5100453;28;1955;-41
2022/10/30 15:08:40;;;;;;;;;;;;;;;;;;5113010;28;1799;-40
2022/10/30 15:11:17;;;;;;;;;;;;;;;;;;5127996;27;1767;-43
2022/10/30 15:13:48;;;;;;;;;;;;;;;;;;5133198;27;1882;-38
2022/10/30 15:16:18;;;;;;;;;;;;;;;;;;5132259;27;2070;-41
2022/10/30 15:18:54;;;;;;;;;;;;;;;;;;5133460;27;2097;-39
2022/10/30 15:21:24;;;;;;;;;;;;;;;;;;5133270;27;1950;-39
2022/10/30 15:23:53;;;;;;;;;;;;;;;;;;5133425;27;1500;-41
2022/10/30 15:26:21;;;;;;;;;;;;;;;;;;5132749;27;2055;-40
2022/10/30 15:28:50;;;;;;;;;;;;;;;;;;5133217;27;1931;-39
2022/10/30 15:31:23;;;;;;;;;;;;;;;;;;5133126;27;1830;-39
2022/10/30 15:33:50;;;;;;;;;;;;;;;;;;5133123;27;1685;-38
2022/10/30 15:36:22;;;;;;;;;;;;;;;;;;5133203;27;1921;-41
2022/10/30 15:39:02;;;;;;;;;;;;;;;;;;5132901;27;1979;-39
2022/10/30 15:41:43;;;;;;;;;;;;;;;;;;5133037;27;1891;-39
2022/10/30 15:44:13;;;;;;;;;;;;;;;;;;5132891;27;2137;-42
2022/10/30 15:46:43;;;;;;;;;;;;;;;;;;5132837;27;1910;-39
2022/10/30 15:49:13;;;;;;;;;;;;;;;;;;5132572;27;1982;-39
2022/10/30 15:51:44;;;;;;;;;;;;;;;;;;5127803;27;1992;-40
2022/10/30 15:54:14;;;;;;;;;;;;;;;;;;5112308;28;2149;-41
2022/10/30 15:56:43;;;;;;;;;;;;;;;;;;5112226;28;1885;-48
2022/10/30 15:59:33;;;;;;;;;;;;;;;;;;5112042;28;1702;-42
2022/10/30 16:02:00;;;;;;;;;;;;;;;;;;5112274;28;1998;-40
2022/10/30 16:04:31;;;;;;;;;;;;;;;;;;5111760;28;1829;-38
2022/10/30 16:06:59;;;;;;;;;;;;;;;;;;5112224;28;1926;-40
2022/10/30 16:09:27;;;;;;;;;;;;;;;;;;5112068;28;1783;-41
2022/10/30 16:11:56;;;;;;;;;;;;;;;;;;5111910;28;2088;-40
2022/10/30 16:14:25;;;;;;;;;;;;;;;;;;5111890;28;1683;-39
2022/10/30 16:16:53;;;;;;;;;;;;;;;;;;5111905;28;1928;-40
2022/10/30 16:19:25;;;;;;;;;;;;;;;;;;5111886;28;1826;-40
2022/10/30 16:21:55;;;;;;;;;;;;;;;;;;5111583;28;1936;-39
2022/10/30 16:24:31;;;;;;;;;;;;;;;;;;5111684;28;1615;-40
2022/10/30 16:27:06;;;;;;;;;;;;;;;;;;5111594;28;1905;-40
2022/10/30 16:29:33;;;;;;;;;;;;;;;;;;5111706;28;1958;-39
2022/10/30 16:32:00;;;;;;;;;;;;;;;;;;5111660;28;2103;-44
2022/10/30 16:34:33;;;;;;;;;;;;;;;;;;5111667;28;1631;-43
2022/10/30 16:37:02;;;;;;;;;;;;;;;;;;5111111;28;1974;-40
2022/10/30 16:39:33;;;;;;;;;;;;;;;;;;5111492;28;1885;-39
2022/10/30 16:42:00;;;;;;;;;;;;;;;;;;5110333;28;1634;-39
2022/10/30 16:44:28;;;;;;;;;;;;;;;;;;5111543;28;1662;-40
2022/10/30 16:47:03;;;;;;;;;;;;;;;;;;5111312;28;1902;-39
2022/10/30 16:49:31;;;;;;;;;;;;;;;;;;5111428;28;2100;-39
2022/10/30 16:52:05;;;;;;;;;;;;;;;;;;5111385;28;1892;-39
2022/10/30 16:54:35;;;;;;;;;;;;;;;;;;5111605;28;2118;-39
2022/10/30 16:57:06;;;;;;;;;;;;;;;;;;5111824;28;1845;-39
2022/10/30 16:59:42;;;;;;;;;;;;;;;;;;5111438;28;1543;-40
2022/10/30 17:02:15;;;;;;;;;;;;;;;;;;5111266;28;1594;-40
2022/10/30 17:04:44;;;;;;;;;;;;;;;;;;5111312;28;1649;-41
2022/10/30 17:07:20;;;;;;;;;;;;;;;;;;5126942;28;1989;-40
2022/10/30 17:09:48;;;;;;;;;;;;;;;;;;5111418;28;1420;-41
2022/10/30 17:12:19;;;;;;;;;;;;;;;;;;5111267;28;1797;-40
2022/10/30 17:15:16;;;;;;;;;;;;;;;;;;5111266;28;1769;-42
2022/10/30 17:18:03;;;;;;;;;;;;;;;;;;5109739;28;1485;-40
2022/10/30 17:20:30;;;;;;;;;;;;;;;;;;5110252;28;1867;-40
2022/10/30 17:23:24;;;;;;;;;;;;;;;;;;5110973;28;1555;-40
2022/10/30 17:25:51;;;;;;;;;;;;;;;;;;5109326;28;2059;-39
2022/10/30 17:28:27;;;;;;;;;;;;;;;;;;5110798;28;2324;-39
2022/10/30 17:30:54;;;;;;;;;;;;;;;;;;5111245;28;1868;-40
2022/10/30 17:33:34;;;;;;;;;;;;;;;;;;5110979;28;1953;-40
2022/10/30 17:36:04;;;;;;;;;;;;;;;;;;5111115;28;2193;-40
2022/10/30 17:38:31;;;;;;;;;;;;;;;;;;5111092;28;1586;-43
2022/10/30 17:40:59;;;;;;;;;;;;;;;;;;5110866;28;1976;-40